Time;durP1;ratioP1;P1;durP2;ratioP2;P2;SDS_P1;SDS_P2;PMS_P1;PMS_P2;Temp;Humidity;BMP_temperature;BMP_pressure;BME280_temperature;BME280_humidity;BME280_pressure;Samples;Min_cycle;Max_cycle;Signal;HPM_P1;HPM_P2
2023/05/16 00:01:54;;;;;;;11.40;2.87;;;;;;;10.78;100.00;101836.16;4998777;28;20219;-74
2023/05/16 00:04:20;;;;;;;8.47;2.10;;;;;;;9.84;100.00;101729.78;4999805;28;20193;-74
2023/05/16 00:06:45;;;;;;;11.67;2.87;;;;;;;9.99;100.00;101711.13;5001777;28;20956;-74
2023/05/16 00:09:11;;;;;;;10.60;2.80;;;;;;;10.84;100.00;101840.00;4995617;28;20472;-73
2023/05/16 00:11:36;;;;;;;12.40;2.30;;;;;;;10.75;100.00;101815.03;4998269;28;20927;-74
2023/05/16 00:14:02;;;;;;;11.70;3.03;;;;;;;10.12;100.00;101751.59;5000263;28;20213;-74
2023/05/16 00:16:28;;;;;;;8.70;2.50;;;;;;;10.02;100.00;101733.06;5007418;28;20846;-73
2023/05/16 00:18:56;;;;;;;11.43;2.43;;;;;;;10.65;100.00;101851.19;5005295;28;20185;-74
2023/05/16 00:21:22;;;;;;;17.17;3.00;;;;;;;10.69;100.00;101831.84;5005598;28;20479;-74
2023/05/16 00:23:47;;;;;;;12.03;2.67;;;;;;;10.53;100.00;101832.78;5007604;28;20951;-74
2023/05/16 00:26:12;;;;;;;11.77;2.90;;;;;;;10.37;100.00;101846.22;5010338;28;20268;-74
2023/05/16 00:28:38;;;;;;;12.37;2.70;;;;;;;9.91;100.00;101789.69;5008853;28;20216;-74
2023/05/16 00:31:04;;;;;;;8.37;2.77;;;;;;;10.15;100.00;101792.31;5010731;28;20673;-73
2023/05/16 00:33:30;;;;;;;9.73;2.67;;;;;;;9.86;100.00;101758.03;5010173;28;20193;-74
2023/05/16 00:35:55;;;;;;;9.30;2.57;;;;;;;10.22;100.00;101799.69;5009847;28;20442;-74
2023/05/16 00:38:20;;;;;;;7.60;1.93;;;;;;;10.07;100.00;101762.84;5009629;28;20621;-74
2023/05/16 00:40:46;;;;;;;13.87;2.83;;;;;;;9.94;100.00;101784.00;5009634;28;20215;-73
2023/05/16 00:43:11;;;;;;;11.07;2.80;;;;;;;10.54;100.00;101836.28;5001246;28;20196;-73
2023/05/16 00:45:37;;;;;;;11.63;2.90;;;;;;;10.28;100.00;101815.94;5005886;28;20197;-74
2023/05/16 00:48:03;;;;;;;10.97;3.57;;;;;;;10.48;100.00;101847.72;5002856;28;20216;-74
2023/05/16 00:50:28;;;;;;;12.13;2.30;;;;;;;9.68;100.00;101749.38;5010384;28;20209;-73
2023/05/16 00:52:54;;;;;;;6.47;1.73;;;;;;;10.54;100.00;101837.13;5008880;28;20185;-73
2023/05/16 00:55:20;;;;;;;8.63;2.47;;;;;;;10.34;100.00;101817.09;5009619;28;20193;-73
2023/05/16 00:57:45;;;;;;;6.83;2.23;;;;;;;10.63;100.00;101849.47;5002571;28;20197;-73
2023/05/16 01:00:13;;;;;;;9.20;2.83;;;;;;;10.68;100.00;101865.06;5002637;28;20220;-74
2023/05/16 01:02:39;;;;;;;7.60;1.60;;;;;;;10.47;100.00;101827.25;5003680;28;20215;-74
2023/05/16 01:05:06;;;;;;;6.37;1.97;;;;;;;10.28;100.00;101863.38;5006372;28;20809;-74
2023/05/16 01:07:31;;;;;;;9.43;2.03;;;;;;;10.17;100.00;101819.78;5006472;28;20280;-73
2023/05/16 01:09:57;;;;;;;8.03;2.17;;;;;;;9.54;100.00;101702.69;5005759;28;20479;-74
2023/05/16 01:12:35;;;;;;;10.70;2.53;;;;;;;10.23;100.00;101863.00;5007001;28;20264;-74
2023/05/16 01:15:07;;;;;;;7.60;2.07;;;;;;;10.38;100.00;101872.03;5008250;28;20436;-74
2023/05/16 01:17:54;;;;;;;6.27;1.80;;;;;;;10.39;100.00;101874.56;4999185;28;20444;-74
2023/05/16 01:21:04;;;;;;;9.37;2.60;;;;;;;10.60;100.00;101870.47;5006739;28;20483;-73
2023/05/16 01:23:47;;;;;;;6.03;1.87;;;;;;;10.39;100.00;101876.41;5000902;28;20947;-73
2023/05/16 01:26:27;;;;;;;10.77;2.30;;;;;;;10.35;100.00;101873.22;5006861;28;20440;-74
2023/05/16 01:28:53;;;;;;;10.20;2.23;;;;;;;10.37;100.00;101879.25;5005235;28;20691;-73
2023/05/16 01:31:22;;;;;;;4.60;1.53;;;;;;;10.29;100.00;101875.75;5010073;28;20456;-74
2023/05/16 01:33:48;;;;;;;9.03;3.13;;;;;;;10.15;100.00;101878.13;5006716;28;20470;-74
2023/05/16 01:36:23;;;;;;;9.13;2.90;;;;;;;9.82;100.00;101804.97;5003710;28;20924;-74
2023/05/16 01:38:57;;;;;;;8.93;2.47;;;;;;;10.33;100.00;101874.41;5007049;28;20443;-73
2023/05/16 01:41:24;;;;;;;6.13;2.20;;;;;;;10.12;100.00;101872.22;5002273;28;20471;-73
2023/05/16 01:43:59;;;;;;;9.40;1.90;;;;;;;10.07;100.00;101872.75;5008076;28;20444;-74
2023/05/16 01:46:29;;;;;;;10.20;2.27;;;;;;;9.43;100.00;101788.75;5007568;28;20443;-74
2023/05/16 01:49:24;;;;;;;14.80;2.50;;;;;;;10.15;100.00;101883.47;4996002;28;20883;-73
2023/05/16 01:51:53;;;;;;;5.10;1.87;;;;;;;10.13;100.00;101877.44;4999982;28;20463;-73
2023/05/16 01:54:23;;;;;;;7.87;1.97;;;;;;;9.87;100.00;101879.50;5000710;28;20543;-73
2023/05/16 01:56:52;;;;;;;6.17;1.70;;;;;;;9.85;100.00;101876.97;5003645;28;20492;-73
2023/05/16 01:59:20;;;;;;;9.60;1.87;;;;;;;10.01;100.00;101878.81;5003583;28;20983;-73
2023/05/16 02:01:46;;;;;;;11.63;2.67;;;;;;;9.39;100.00;101806.16;5000848;28;20475;-73
2023/05/16 02:04:13;;;;;;;9.20;2.60;;;;;;;9.99;100.00;101885.34;5001088;28;20443;-74
2023/05/16 02:06:39;;;;;;;10.53;2.13;;;;;;;9.81;100.00;101877.50;5001667;28;20192;-73
2023/05/16 02:09:05;;;;;;;8.97;2.40;;;;;;;9.43;100.00;101812.84;5004174;28;20833;-73
2023/05/16 02:11:30;;;;;;;9.63;2.00;;;;;;;9.67;100.00;101874.47;5001947;28;20943;-73
2023/05/16 02:13:56;;;;;;;7.07;2.10;;;;;;;9.47;100.00;101828.44;5005263;28;20197;-74
2023/05/16 02:16:21;;;;;;;8.67;2.37;;;;;;;9.74;100.00;101875.44;5007084;28;20188;-74
2023/05/16 02:18:47;;;;;;;6.03;1.50;;;;;;;9.07;100.00;101761.47;5005383;28;20649;-73
2023/05/16 02:21:12;;;;;;;6.67;2.17;;;;;;;9.83;100.00;101867.41;5003209;28;20217;-73
2023/05/16 02:23:38;;;;;;;6.03;1.80;;;;;;;10.01;100.00;101881.50;5005739;28;20708;-73
2023/05/16 02:26:03;;;;;;;8.00;2.13;;;;;;;9.55;100.00;101816.88;5008562;28;20239;-73
2023/05/16 02:28:29;;;;;;;7.73;2.33;;;;;;;9.70;100.00;101876.81;5009024;28;20209;-73
2023/05/16 02:30:58;;;;;;;7.30;2.17;;;;;;;9.83;100.00;101872.78;5007060;28;20582;-73
2023/05/16 02:33:26;;;;;;;6.60;1.90;;;;;;;9.48;100.00;101880.13;5014635;23;20265;-73
2023/05/16 02:35:52;;;;;;;10.77;2.63;;;;;;;9.37;100.00;101821.56;5003570;28;20441;-73
2023/05/16 02:38:19;;;;;;;8.00;1.93;;;;;;;9.43;100.00;101812.84;5002944;28;20501;-73
2023/05/16 02:40:45;;;;;;;11.70;2.80;;;;;;;8.99;100.00;101756.94;5003996;28;20428;-73
2023/05/16 02:43:11;;;;;;;10.17;2.20;;;;;;;9.01;100.00;101741.56;4987011;28;20491;-73
2023/05/16 02:45:36;;;;;;;7.80;1.90;;;;;;;9.57;100.00;101883.66;4979672;28;20955;-73
2023/05/16 02:48:02;;;;;;;9.40;2.03;;;;;;;9.85;100.00;101876.13;4979564;28;20292;-73
2023/05/16 02:50:27;;;;;;;8.10;2.37;;;;;;;9.28;100.00;101826.91;4979726;28;20204;-73
2023/05/16 02:52:52;;;;;;;5.80;2.10;;;;;;;9.18;100.00;101775.38;4979380;28;20729;-73
2023/05/16 02:55:18;;;;;;;6.40;1.70;;;;;;;9.54;100.00;101825.91;4993938;28;20190;-73
2023/05/16 02:57:43;;;;;;;8.23;1.60;;;;;;;9.12;100.00;101823.38;4975751;28;20189;-73
2023/05/16 03:00:10;;;;;;;8.97;2.03;;;;;;;8.93;100.00;101789.72;4971652;28;20198;-73
2023/05/16 03:02:36;;;;;;;8.40;2.50;;;;;;;9.43;100.00;101826.22;4979256;28;20233;-73
2023/05/16 03:05:03;;;;;;;9.00;2.27;;;;;;;8.81;100.00;101733.84;4977853;28;20934;-72
2023/05/16 03:07:28;;;;;;;5.77;1.90;;;;;;;9.59;100.00;101887.03;4976543;28;20197;-74
2023/05/16 03:09:54;;;;;;;7.43;2.27;;;;;;;8.46;100.00;101755.53;4975372;28;20476;-73
2023/05/16 03:12:19;;;;;;;10.57;2.37;;;;;;;9.22;100.00;101838.28;4973497;28;20228;-73
2023/05/16 03:14:45;;;;;;;8.03;2.00;;;;;;;9.79;100.00;101879.50;4972673;28;20314;-73
2023/05/16 03:17:10;;;;;;;13.30;3.60;;;;;;;9.58;100.00;101904.09;4975688;28;20198;-73
2023/05/16 03:19:36;;;;;;;9.93;2.10;;;;;;;9.68;100.00;101891.38;4973982;28;20208;-73
2023/05/16 03:22:02;;;;;;;7.30;1.90;;;;;;;9.24;100.00;101830.09;4991512;28;20214;-73
2023/05/16 03:24:28;;;;;;;6.70;2.30;;;;;;;9.68;100.00;101899.41;4972544;28;20547;-73
2023/05/16 03:26:54;;;;;;;8.50;2.37;;;;;;;8.62;100.00;101765.41;4973402;28;20528;-73
2023/05/16 03:29:19;;;;;;;8.00;1.80;;;;;;;9.77;100.00;101890.34;4974234;28;20232;-73
2023/05/16 03:31:44;;;;;;;4.33;1.67;;;;;;;9.49;100.00;101834.47;4969626;28;20214;-73
2023/05/16 03:34:10;;;;;;;8.10;1.73;;;;;;;9.65;100.00;101873.78;4974255;28;20204;-73
2023/05/16 03:36:37;;;;;;;9.50;2.10;;;;;;;9.70;100.00;101862.56;4973238;28;20190;-73
2023/05/16 03:39:02;;;;;;;6.63;1.90;;;;;;;9.33;100.00;101868.41;4973115;28;20221;-73
2023/05/16 03:41:28;;;;;;;10.90;1.83;;;;;;;9.64;100.00;101900.75;4975089;28;20440;-73
2023/05/16 03:43:53;;;;;;;6.83;1.70;;;;;;;8.58;100.00;101717.59;4975255;28;20354;-73
2023/05/16 03:46:19;;;;;;;5.87;1.70;;;;;;;9.19;100.00;101843.13;4975033;28;20265;-73
2023/05/16 03:48:44;;;;;;;6.73;1.50;;;;;;;9.54;100.00;101898.22;4975352;28;20217;-73
2023/05/16 03:51:10;;;;;;;6.57;1.63;;;;;;;8.71;100.00;101784.00;4973993;28;20250;-73
2023/05/16 03:53:36;;;;;;;7.20;1.83;;;;;;;8.76;100.00;101804.91;4987424;28;20706;-73
2023/05/16 03:56:03;;;;;;;4.10;1.83;;;;;;;9.23;100.00;101898.84;4969494;28;20202;-73
2023/05/16 03:58:28;;;;;;;7.27;1.90;;;;;;;9.38;100.00;101900.91;4972262;28;20449;-73
2023/05/16 04:00:54;;;;;;;6.40;2.30;;;;;;;8.68;100.00;101764.75;4971687;28;20440;-73
2023/05/16 04:03:26;;;;;;;10.37;2.60;;;;;;;9.11;100.00;101862.66;4972714;28;20216;-72
2023/05/16 04:05:52;;;;;;;5.50;2.27;;;;;;;9.13;100.00;101867.88;4975093;28;20209;-73
2023/05/16 04:08:17;;;;;;;6.23;1.80;;;;;;;9.30;100.00;101907.06;4975648;28;20476;-73
2023/05/16 04:10:43;;;;;;;4.63;2.03;;;;;;;9.36;100.00;101844.81;4974767;28;20198;-73
2023/05/16 04:13:08;;;;;;;6.23;1.90;;;;;;;8.73;100.00;101752.56;4974124;28;20213;-72
2023/05/16 04:15:34;;;;;;;10.37;2.03;;;;;;;9.40;100.00;101896.19;4975153;28;20768;-73
2023/05/16 04:18:00;;;;;;;6.10;1.70;;;;;;;8.65;100.00;101811.41;4977461;28;20197;-72
2023/05/16 04:20:25;;;;;;;5.70;1.70;;;;;;;9.47;100.00;101881.16;4979969;28;20193;-72
2023/05/16 04:22:51;;;;;;;5.77;1.80;;;;;;;9.86;100.00;101926.03;4979106;28;20206;-73
2023/05/16 04:25:16;;;;;;;8.30;2.50;;;;;;;9.60;100.00;101899.41;4981462;28;20182;-73
2023/05/16 04:27:42;;;;;;;6.93;1.80;;;;;;;9.15;100.00;101847.16;4980255;28;20221;-73
2023/05/16 04:30:08;;;;;;;6.60;2.07;;;;;;;9.55;100.00;101883.00;4979121;28;20194;-73
2023/05/16 04:32:34;;;;;;;6.97;1.80;;;;;;;9.24;100.00;101844.31;4978151;28;20225;-73
2023/05/16 04:35:00;;;;;;;5.93;1.43;;;;;;;9.24;100.00;101830.91;4982383;28;20446;-73
2023/05/16 04:37:25;;;;;;;7.53;2.00;;;;;;;9.18;100.00;101818.19;4979912;28;20703;-73
2023/05/16 04:39:53;;;;;;;6.70;1.67;;;;;;;8.83;100.00;101771.16;4993974;28;20575;-73
2023/05/16 04:42:18;;;;;;;6.33;2.10;;;;;;;9.67;100.00;101905.78;4979662;28;20206;-72
2023/05/16 04:44:46;;;;;;;5.90;1.63;;;;;;;9.06;100.00;101832.91;4979707;28;20858;-73
2023/05/16 04:47:12;;;;;;;6.70;1.70;;;;;;;9.51;100.00;101936.88;4980480;28;20188;-74
2023/05/16 04:49:37;;;;;;;5.37;1.90;;;;;;;9.57;100.00;101852.34;4978453;28;20853;-74
2023/05/16 04:52:03;;;;;;;10.30;2.27;;;;;;;9.64;100.00;101841.81;4979172;28;20206;-73
2023/05/16 04:54:28;;;;;;;9.13;2.07;;;;;;;9.91;100.00;101872.78;4982208;28;20292;-74
2023/05/16 04:56:54;;;;;;;4.53;1.50;;;;;;;10.25;100.00;101934.22;4973327;28;20757;-73
2023/05/16 04:59:20;;;;;;;8.70;1.57;;;;;;;9.96;100.00;101921.34;4972752;28;20195;-74
2023/05/16 05:01:46;;;;;;;7.60;1.87;;;;;;;9.76;100.00;101875.31;4974016;28;20272;-74
2023/05/16 05:04:11;;;;;;;6.77;1.60;;;;;;;10.34;100.00;101929.72;4975268;28;20502;-73
2023/05/16 05:06:37;;;;;;;10.50;1.73;;;;;;;10.10;100.00;101931.41;4978660;28;20499;-72
2023/05/16 05:09:04;;;;;;;7.53;1.63;;;;;;;9.25;100.00;101795.09;4979665;28;20217;-74
2023/05/16 05:11:30;;;;;;;8.13;1.83;;;;;;;9.57;100.00;101841.63;4979411;28;20511;-72
2023/05/16 05:13:55;;;;;;;9.90;2.70;;;;;;;9.75;100.00;101844.16;4990792;28;20485;-74
2023/05/16 05:16:21;;;;;;;5.33;1.60;;;;;;;9.33;100.00;101769.34;4976005;28;20193;-73
2023/05/16 05:18:47;;;;;;;7.57;1.67;;;;;;;10.56;100.00;101929.00;4979285;28;20217;-72
2023/05/16 05:21:12;;;;;;;7.97;1.73;;;;;;;9.24;100.00;101729.19;4980394;28;20639;-73
2023/05/16 05:23:39;;;;;;;3.70;1.20;;;;;;;8.23;100.00;101590.34;4983510;28;20208;-73
2023/05/16 05:26:04;;;;;;;6.50;1.40;;;;;;;10.40;100.00;101911.09;4984168;28;20785;-72
2023/05/16 05:28:30;;;;;;;8.93;1.70;;;;;;;9.83;100.00;101833.41;4985092;28;20514;-72
2023/05/16 05:30:55;;;;;;;4.97;1.73;;;;;;;9.14;100.00;101747.28;4985941;28;20579;-72
2023/05/16 05:33:26;;;;;;;9.00;2.03;;;;;;;9.53;100.00;101789.44;4981848;28;20583;-72
2023/05/16 05:35:53;;;;;;;4.33;1.70;;;;;;;10.11;100.00;101863.38;4976144;28;20624;-71
2023/05/16 05:38:19;;;;;;;5.30;1.67;;;;;;;10.02;100.00;101837.59;4993351;28;20609;-73
2023/05/16 05:40:44;;;;;;;4.37;1.30;;;;;;;9.28;100.00;101761.81;4978422;28;20483;-72
2023/05/16 05:43:10;;;;;;;9.27;2.07;;;;;;;9.83;100.00;101829.91;4975033;28;20491;-73
2023/05/16 05:45:36;;;;;;;7.17;1.77;;;;;;;9.63;100.00;101807.97;4966257;28;20190;-72
2023/05/16 05:48:02;;;;;;;9.10;1.87;;;;;;;9.94;100.00;101838.44;4972245;28;20185;-72
2023/05/16 05:50:27;;;;;;;6.33;1.53;;;;;;;10.81;100.00;101945.00;4977055;28;20448;-72
2023/05/16 05:52:55;;;;;;;8.03;2.17;;;;;;;10.78;100.00;101946.19;4980293;28;20267;-72
2023/05/16 05:55:20;;;;;;;5.70;1.63;;;;;;;10.56;100.00;101931.69;4991192;28;20198;-73
2023/05/16 05:57:46;;;;;;;5.00;1.90;;;;;;;10.33;100.00;101896.72;4977575;28;21031;-72
2023/05/16 06:00:12;;;;;;;6.70;2.17;;;;;;;10.10;100.00;101859.03;4973902;28;20190;-75
2023/05/16 06:02:37;;;;;;;9.73;1.70;;;;;;;9.73;100.00;101774.66;4978636;28;20209;-73
2023/05/16 06:05:03;;;;;;;3.57;1.30;;;;;;;10.81;100.00;101900.22;4977123;28;20445;-72
2023/05/16 06:07:29;;;;;;;6.23;1.73;;;;;;;10.54;100.00;101927.50;4977134;28;20201;-72
2023/05/16 06:09:54;;;;;;;8.33;1.93;;;;;;;9.92;100.00;101819.03;4977243;28;20210;-72
2023/05/16 06:12:19;;;;;;;4.70;1.57;;;;;;;10.02;100.00;101850.16;4977775;28;20210;-72
2023/05/16 06:14:45;;;;;;;6.73;2.23;;;;;;;9.73;100.00;101817.53;4973774;28;20639;-72
2023/05/16 06:17:10;;;;;;;6.53;1.60;;;;;;;10.04;100.00;101824.00;4977097;28;20657;-72
2023/05/16 06:19:36;;;;;;;6.27;1.20;;;;;;;9.73;100.00;101779.19;4978206;28;20193;-73
2023/05/16 06:22:01;;;;;;;7.50;1.33;;;;;;;10.79;100.00;101957.75;4976267;28;20581;-72
2023/05/16 06:24:28;;;;;;;4.10;1.13;;;;;;;10.26;100.00;101884.94;4979166;28;20562;-73
2023/05/16 06:26:54;;;;;;;5.93;1.83;;;;;;;10.42;100.00;101921.66;4978699;28;20640;-72
2023/05/16 06:29:19;;;;;;;5.30;1.53;;;;;;;9.42;100.00;101805.81;4978520;28;20476;-72
2023/05/16 06:31:46;;;;;;;5.93;1.83;;;;;;;10.30;100.00;101910.47;4975598;28;20193;-72
2023/05/16 06:34:11;;;;;;;4.57;1.33;;;;;;;10.73;100.00;101918.19;4983694;28;20846;-72
2023/05/16 06:36:37;;;;;;;8.90;1.70;;;;;;;10.76;100.00;101982.25;4978742;28;20476;-71
2023/05/16 06:39:03;;;;;;;9.03;1.30;;;;;;;10.53;100.00;101932.03;4977095;28;20182;-71
2023/05/16 06:41:29;;;;;;;12.80;1.90;;;;;;;10.11;100.00;101852.63;4978952;28;20317;-71
2023/05/16 06:43:54;;;;;;;8.83;1.77;;;;;;;10.94;100.00;101972.16;4978287;28;20598;-71
2023/05/16 06:46:20;;;;;;;3.93;1.40;;;;;;;10.39;100.00;101871.03;4976734;28;20310;-72
2023/05/16 06:48:45;;;;;;;7.00;1.90;;;;;;;10.57;100.00;101889.59;4974572;28;20299;-72
2023/05/16 06:51:11;;;;;;;7.73;1.57;;;;;;;10.33;100.00;101836.88;4976777;28;20194;-72
2023/05/16 06:53:36;;;;;;;10.17;1.87;;;;;;;10.67;100.00;101884.00;4976935;28;20252;-72
2023/05/16 06:56:02;;;;;;;9.53;2.07;;;;;;;10.54;100.00;101855.91;4977090;28;20194;-72
2023/05/16 06:58:27;;;;;;;6.83;1.80;;;;;;;11.17;100.00;101956.13;4977459;28;20217;-71
2023/05/16 07:00:53;;;;;;;7.30;1.77;;;;;;;10.75;100.00;101937.66;4976836;28;20285;-72
2023/05/16 07:03:18;;;;;;;10.50;1.87;;;;;;;9.63;100.00;101822.25;4975528;28;20679;-72
2023/05/16 07:05:44;;;;;;;5.13;1.57;;;;;;;10.60;100.00;101972.41;4982203;28;20193;-71
2023/05/16 07:08:09;;;;;;;9.43;2.30;;;;;;;10.06;100.00;101884.47;4976727;28;20791;-72
2023/05/16 07:10:35;;;;;;;6.13;1.50;;;;;;;10.29;100.00;101926.69;4978765;28;20666;-72
2023/05/16 07:13:01;;;;;;;4.33;1.43;;;;;;;9.90;100.00;101830.91;4974771;28;20204;-71
2023/05/16 07:15:26;;;;;;;7.33;1.60;;;;;;;10.74;100.00;101955.59;4993334;28;20198;-73
2023/05/16 07:17:52;;;;;;;5.43;1.50;;;;;;;10.52;100.00;101916.09;4977795;28;20201;-72
2023/05/16 07:20:17;;;;;;;8.43;1.80;;;;;;;10.94;100.00;101958.72;4977535;28;20193;-72
2023/05/16 07:22:42;;;;;;;4.30;1.30;;;;;;;10.74;100.00;101903.78;4979954;28;20632;-72
2023/05/16 07:25:11;;;;;;;6.17;1.80;;;;;;;10.61;100.00;101872.13;4974217;28;20189;-72
2023/05/16 07:27:40;;;;;;;4.80;1.50;;;;;;;11.03;100.00;101927.31;4965235;28;20291;-71
2023/05/16 07:30:12;;;;;;;7.33;2.10;;;;;;;11.11;100.00;101926.41;4970851;28;20469;-73
2023/05/16 07:32:38;;;;;;;10.90;2.30;;;;;;;11.16;100.00;101914.13;4975347;28;20496;-74
2023/05/16 07:35:04;;;;;;;6.40;1.80;;;;;;;11.30;100.00;101909.88;4974037;28;20940;-74
2023/05/16 07:37:29;;;;;;;9.83;2.20;;;;;;;10.79;100.00;101875.41;4975656;28;20193;-73
2023/05/16 07:39:55;;;;;;;8.93;1.83;;;;;;;11.24;100.00;101913.25;4975703;28;20193;-73
2023/05/16 07:42:20;;;;;;;6.70;2.30;;;;;;;11.52;100.00;101973.53;4973575;28;20201;-73
2023/05/16 07:44:46;;;;;;;4.53;1.97;;;;;;;10.85;100.00;101833.63;4969982;28;20680;-73
2023/05/16 07:47:11;;;;;;;10.90;2.13;;;;;;;11.16;100.00;101957.09;4972240;28;20194;-73
2023/05/16 07:49:37;;;;;;;6.97;1.87;;;;;;;11.26;100.00;101973.03;4972667;28;20206;-73
2023/05/16 07:52:02;;;;;;;10.33;2.07;;;;;;;11.35;100.00;101965.75;4976774;28;20206;-73
2023/05/16 07:54:28;;;;;;;4.97;1.60;;;;;;;10.95;100.00;101874.50;4973506;28;20186;-74
2023/05/16 07:56:53;;;;;;;7.60;1.40;;;;;;;10.77;100.00;101876.59;4973201;28;20225;-73
2023/05/16 07:59:19;;;;;;;5.90;1.80;;;;;;;11.13;100.00;101909.13;4977167;28;20186;-73
2023/05/16 08:01:45;;;;;;;5.57;1.73;;;;;;;11.61;100.00;101947.44;4978126;28;20189;-74
2023/05/16 08:04:10;;;;;;;9.70;1.90;;;;;;;11.38;100.00;101970.78;4971960;28;20193;-72
2023/05/16 08:06:36;;;;;;;4.10;1.00;;;;;;;10.05;100.00;101927.53;4978857;28;20668;-71
2023/05/16 08:09:01;;;;;;;4.43;0.90;;;;;;;10.52;100.00;102000.09;4980548;28;20207;-72
2023/05/16 08:11:27;;;;;;;4.33;1.30;;;;;;;9.78;100.00;101896.56;4991647;28;20194;-71
2023/05/16 08:13:53;;;;;;;3.20;1.10;;;;;;;10.56;100.00;101974.59;4980352;28;20460;-71
2023/05/16 08:16:18;;;;;;;2.80;1.00;;;;;;;10.43;100.00;101923.31;4977829;28;20274;-71
2023/05/16 08:18:44;;;;;;;5.63;1.57;;;;;;;10.99;100.00;102004.69;4979042;28;20233;-71
2023/05/16 08:21:09;;;;;;;8.43;2.03;;;;;;;10.30;100.00;101838.06;4979068;28;20194;-71
2023/05/16 08:23:35;;;;;;;7.40;1.73;;;;;;;11.07;100.00;101966.22;4979144;28;20668;-71
2023/05/16 08:26:01;;;;;;;4.87;1.60;;;;;;;11.12;100.00;102000.59;4979290;28;20186;-71
2023/05/16 08:28:27;;;;;;;6.67;1.60;;;;;;;11.12;100.00;101930.78;4978428;28;20277;-70
2023/05/16 08:30:53;;;;;;;6.23;1.70;;;;;;;11.45;100.00;101967.19;4980165;28;20437;-71
2023/05/16 08:33:18;;;;;;;8.60;2.47;;;;;;;11.87;100.00;101997.38;4979037;28;20912;-71
2023/05/16 08:35:45;;;;;;;10.60;2.43;;;;;;;11.20;100.00;101885.09;4990192;28;20205;-72
2023/05/16 08:38:10;;;;;;;6.67;1.50;;;;;;;11.15;100.00;101930.44;4982995;28;20654;-72
2023/05/16 08:40:36;;;;;;;5.40;1.30;;;;;;;9.90;100.00;101896.06;4981357;28;20828;-73
2023/05/16 08:43:02;;;;;;;3.80;1.20;;;;;;;8.64;100.00;101692.03;5025526;23;20232;-74
2023/05/16 08:45:30;;;;;;;5.97;1.60;;;;;;;9.13;100.00;101800.97;5016440;28;20223;-73
2023/05/16 08:47:56;;;;;;;4.67;1.23;;;;;;;10.72;100.00;102015.81;5017096;28;20494;-74
2023/05/16 08:50:23;;;;;;;2.40;0.90;;;;;;;10.50;100.00;101994.06;5024721;28;21224;-74
2023/05/16 08:52:51;;;;;;;1.70;0.83;;;;;;;10.48;100.00;101945.13;5021580;28;20934;-74
2023/05/16 08:55:18;;;;;;;3.53;1.47;;;;;;;10.91;100.00;101998.50;5021476;28;20884;-73
2023/05/16 08:57:45;;;;;;;4.50;1.10;;;;;;;11.41;100.00;102003.50;5034954;28;20800;-74
2023/05/16 09:00:11;;;;;;;5.07;1.30;;;;;;;11.49;100.00;102006.13;5014857;28;20530;-74
2023/05/16 09:02:41;;;;;;;6.40;1.43;;;;;;;10.90;100.00;101882.22;5019080;28;21337;-72
2023/05/16 09:05:14;;;;;;;9.93;2.07;;;;;;;11.92;100.00;102014.66;5020152;28;20442;-73
2023/05/16 09:07:41;;;;;;;7.80;1.67;;;;;;;11.36;100.00;101914.53;5020509;28;20435;-72
2023/05/16 09:10:08;;;;;;;3.27;1.17;;;;;;;11.40;100.00;102011.72;5017968;28;20462;-74
2023/05/16 09:12:34;;;;;;;6.27;1.70;;;;;;;10.11;100.00;101948.31;5016525;28;20466;-74
2023/05/16 09:15:04;;;;;;;6.03;1.40;;;;;;;10.80;100.00;102026.53;5011311;28;21019;-74
2023/05/16 09:17:44;;;;;;;4.20;1.50;;;;;;;10.40;100.00;102052.41;5032243;28;20196;-74
2023/05/16 09:20:14;;;;;;;4.40;1.13;;;;;;;10.50;100.00;102001.25;5016458;28;20454;-73
2023/05/16 09:22:58;;;;;;;3.63;0.80;;;;;;;10.63;100.00;102034.63;5015307;28;20459;-74
2023/05/16 09:25:26;;;;;;;3.27;0.83;;;;;;;11.05;100.00;102036.22;5020716;28;20483;-74
2023/05/16 09:27:56;;;;;;;2.37;0.90;;;;;;;11.08;100.00;102029.66;5012829;28;20748;-73
2023/05/16 09:30:26;;;;;;;3.93;0.90;;;;;;;10.76;100.00;101942.88;5017181;28;21296;-74
2023/05/16 09:32:52;;;;;;;5.50;1.30;;;;;;;11.33;100.00;102011.59;5018841;28;20850;-73
2023/05/16 09:35:19;;;;;;;3.43;0.83;;;;;;;11.28;100.00;102022.00;5021911;28;20447;-74
2023/05/16 09:37:46;;;;;;;3.83;1.37;;;;;;;10.92;100.00;101906.22;5020061;28;20207;-74
2023/05/16 09:40:12;;;;;;;10.63;1.57;;;;;;;11.52;100.00;101995.03;5019095;28;20443;-73
2023/05/16 09:42:38;;;;;;;7.83;2.13;;;;;;;10.73;100.00;101876.13;5021734;28;20536;-74
2023/05/16 09:45:03;;;;;;;4.33;1.47;;;;;;;11.61;100.00;101979.69;5018714;28;20247;-73
2023/05/16 09:47:29;;;;;;;5.37;1.60;;;;;;;11.56;100.00;101935.56;5017023;28;20601;-74
2023/05/16 09:49:55;;;;;;;4.80;1.90;;;;;;;12.06;100.00;102031.00;5018061;28;20216;-73
2023/05/16 09:52:21;;;;;;;4.80;1.83;;;;;;;11.43;100.00;101952.28;5017572;28;20207;-75
2023/05/16 09:54:49;;;;;;;6.30;1.67;;;;;;;11.92;100.00;102017.34;5015285;28;20506;-73
2023/05/16 09:57:22;;;;;;;4.87;1.27;;;;;;;11.93;100.00;102007.41;5020673;28;20195;-74
2023/05/16 09:59:48;;;;;;;8.37;1.53;;;;;;;10.99;100.00;101881.19;5015471;28;20436;-74
2023/05/16 10:02:15;;;;;;;3.43;1.40;;;;;;;11.43;100.00;101968.41;5016047;28;20463;-74
2023/05/16 10:04:41;;;;;;;3.83;1.20;;;;;;;11.84;100.00;102025.41;5017683;28;20814;-72
2023/05/16 10:07:08;;;;;;;3.70;1.40;;;;;;;11.67;100.00;102021.16;5019603;28;20454;-71
2023/05/16 10:09:38;;;;;;;3.97;1.10;;;;;;;11.52;100.00;101996.88;5019051;28;20474;-72
2023/05/16 10:12:07;;;;;;;5.40;1.70;;;;;;;11.82;100.00;102010.47;5016541;28;20471;-72
2023/05/16 10:14:35;;;;;;;4.70;1.87;;;;;;;11.37;100.00;101935.03;5018139;28;20509;-71
2023/05/16 10:17:02;;;;;;;5.63;1.77;;;;;;;11.73;100.00;101972.91;5015046;28;20447;-71
2023/05/16 10:19:30;;;;;;;4.87;1.60;;;;;;;11.89;100.00;102016.81;5015090;28;20948;-71
2023/05/16 10:21:59;;;;;;;7.40;2.03;;;;;;;11.64;100.00;102029.56;5015860;28;20626;-72
2023/05/16 10:24:35;;;;;;;13.47;1.33;;;;;;;10.62;100.00;101901.47;5018891;28;20442;-74
2023/05/16 10:27:02;;;;;;;4.20;1.80;;;;;;;11.31;100.00;102035.09;5014348;28;20431;-74
2023/05/16 10:29:28;;;;;;;5.97;1.60;;;;;;;11.23;100.00;102041.34;5018425;28;20471;-72
2023/05/16 10:31:54;;;;;;;6.17;1.73;;;;;;;11.10;100.00;102054.47;5015209;28;20501;-71
2023/05/16 10:34:19;;;;;;;16.10;2.50;;;;;;;11.11;100.00;102072.28;5017723;28;20455;-71
2023/05/16 10:36:45;;;;;;;7.23;2.00;;;;;;;10.04;100.00;102054.53;5016652;28;20558;-71
2023/05/16 10:39:11;;;;;;;1.57;1.00;;;;;;;9.77;100.00;102114.59;5016761;28;20264;-70
2023/05/16 10:41:37;;;;;;;3.63;1.27;;;;;;;9.87;100.00;102083.16;5019346;28;20478;-69
2023/05/16 10:44:11;;;;;;;3.03;1.10;;;;;;;9.45;100.00;102098.22;5018697;28;20501;-70
2023/05/16 10:46:37;;;;;;;2.50;0.73;;;;;;;10.03;100.00;102103.78;5033005;28;20493;-70
2023/05/16 10:49:29;;;;;;;2.80;1.07;;;;;;;10.27;100.00;102095.84;5018327;28;20471;-70
2023/05/16 10:52:04;;;;;;;2.13;0.73;;;;;;;10.68;100.00;102100.38;5016212;28;20204;-71
2023/05/16 10:54:34;;;;;;;1.53;0.80;;;;;;;10.81;100.00;102089.94;5017279;28;20464;-70
2023/05/16 10:57:05;;;;;;;2.10;1.10;;;;;;;10.89;100.00;102068.47;5013033;28;20540;-71
2023/05/16 10:59:42;;;;;;;6.20;1.00;;;;;;;11.30;100.00;102082.59;5019894;28;20500;-71
2023/05/16 11:02:32;;;;;;;2.47;1.00;;;;;;;11.36;100.00;102078.38;5016912;28;20466;-70
2023/05/16 11:05:01;;;;;;;7.70;1.47;;;;;;;11.54;100.00;102084.38;5010683;28;20814;-71
2023/05/16 11:07:35;;;;;;;7.40;1.77;;;;;;;11.55;100.00;102077.16;5016110;28;20438;-71
2023/05/16 11:10:15;;;;;;;9.23;2.20;;;;;;;11.43;100.00;101985.34;5014463;28;20467;-72
2023/05/16 11:12:48;;;;;;;6.73;1.83;;;;;;;12.21;100.00;102070.41;5017117;28;20549;-71
2023/05/16 11:15:20;;;;;;;7.63;1.60;;;;;;;12.25;100.00;102057.41;5016549;28;20482;-72
2023/05/16 11:17:46;;;;;;;6.13;1.97;;;;;;;11.56;100.00;101981.25;5018826;28;20456;-71
2023/05/16 11:20:31;;;;;;;8.60;2.00;;;;;;;12.22;100.00;102057.78;5017406;28;20441;-70